createdAt,value
2023-05-25T00:01:45.122Z,22.47
2023-05-25T00:04:17.689Z,22.23
2023-05-25T00:06:47.823Z,22.27
2023-05-25T00:09:17.122Z,21.63
2023-05-25T00:11:46.535Z,21.77
2023-05-25T00:14:16.024Z,22.27
2023-05-25T00:16:45.936Z,21.70
2023-05-25T00:19:18.855Z,23.37
2023-05-25T00:21:48.984Z,21.57
2023-05-25T00:24:18.348Z,24.13
2023-05-25T00:26:47.785Z,26.63
2023-05-25T00:29:17.205Z,23.00
2023-05-25T00:31:46.375Z,22.40
2023-05-25T00:34:17.020Z,22.57
2023-05-25T00:36:48.495Z,24.47
2023-05-25T00:39:17.981Z,22.17
2023-05-25T00:41:47.995Z,23.27
2023-05-25T00:44:22.262Z,24.50
2023-05-25T00:46:53.474Z,24.70
2023-05-25T00:49:24.468Z,27.37
2023-05-25T00:51:54.653Z,26.00
2023-05-25T00:54:24.226Z,24.97
2023-05-25T00:56:57.042Z,24.50
2023-05-25T00:59:31.292Z,26.37
2023-05-25T01:07:16.527Z,27.50
2023-05-25T01:09:47.160Z,27.07
2023-05-25T01:12:18.197Z,26.87
2023-05-25T01:14:48.790Z,29.13
2023-05-25T01:17:20.709Z,25.93
2023-05-25T01:20:08.163Z,27.70
2023-05-25T01:22:46.852Z,30.13
2023-05-25T01:25:22.065Z,30.43
2023-05-25T01:27:56.062Z,30.13
2023-05-25T01:30:27.924Z,30.50
2023-05-25T01:32:58.921Z,34.67
2023-05-25T01:35:29.680Z,32.20
2023-05-25T01:38:00.636Z,32.97
2023-05-25T01:40:30.210Z,34.70
2023-05-25T01:42:59.378Z,34.50
2023-05-25T01:45:29.182Z,33.90
2023-05-25T01:48:04.910Z,36.73
2023-05-25T01:50:43.082Z,37.23
2023-05-25T01:53:17.795Z,35.20
2023-05-25T01:55:54.422Z,35.87
2023-05-25T01:58:25.444Z,33.70
2023-05-25T02:00:55.879Z,40.50
2023-05-25T02:03:26.129Z,36.53
2023-05-25T02:05:58.147Z,37.27
2023-05-25T02:08:28.843Z,34.00
2023-05-25T02:10:58.084Z,35.73
2023-05-25T02:13:27.395Z,34.87
2023-05-25T02:15:56.635Z,37.77
2023-05-25T02:18:26.752Z,37.60
2023-05-25T02:20:56.675Z,35.47
2023-05-25T02:23:28.961Z,34.43
2023-05-25T02:25:58.169Z,30.50
2023-05-25T02:28:27.488Z,33.57
2023-05-25T02:30:57.032Z,35.50
2023-05-25T02:33:26.461Z,30.73
2023-05-25T02:35:55.787Z,29.93
2023-05-25T02:38:24.970Z,30.40
2023-05-25T02:40:56.699Z,31.80
2023-05-25T02:43:26.550Z,30.07
2023-05-25T02:45:55.819Z,29.23
2023-05-25T02:48:26.017Z,29.90
2023-05-25T02:50:56.071Z,28.17
2023-05-25T02:53:25.273Z,26.60
2023-05-25T02:55:56.574Z,32.27
2023-05-25T02:58:29.165Z,28.47
2023-05-25T03:01:11.061Z,29.20
2023-05-25T03:03:46.436Z,32.93
2023-05-25T03:06:16.283Z,28.37
2023-05-25T03:08:46.962Z,27.03
2023-05-25T03:11:17.693Z,28.97
2023-05-25T03:13:47.808Z,26.80
2023-05-25T03:16:18.638Z,28.17
2023-05-25T03:18:47.974Z,27.40
2023-05-25T03:21:17.155Z,29.90
2023-05-25T03:23:46.931Z,28.07
2023-05-25T03:26:17.828Z,29.17
2023-05-25T03:28:48.929Z,27.67
2023-05-25T03:31:18.175Z,27.57
2023-05-25T03:33:47.825Z,29.43
2023-05-25T03:36:17.761Z,27.53
2023-05-25T03:38:46.981Z,27.63
2023-05-25T03:41:17.720Z,30.93
2023-05-25T03:43:46.988Z,28.47
2023-05-25T03:46:16.813Z,29.23
2023-05-25T03:48:46.263Z,29.00
2023-05-25T03:51:16.712Z,26.53
2023-05-25T03:53:47.775Z,27.23
2023-05-25T03:56:18.311Z,28.20
2023-05-25T03:58:47.536Z,28.53
2023-05-25T04:01:16.988Z,32.70
2023-05-25T04:03:46.445Z,31.30
2023-05-25T04:06:19.698Z,27.77
2023-05-25T04:08:50.778Z,31.90
2023-05-25T04:11:22.859Z,28.80
2023-05-25T04:13:52.105Z,28.70
2023-05-25T04:16:22.024Z,29.23
2023-05-25T04:18:51.403Z,30.87
2023-05-25T04:21:20.758Z,29.90
2023-05-25T04:23:49.962Z,30.63
2023-05-25T04:26:21.459Z,33.20
2023-05-25T04:28:54.797Z,31.40
2023-05-25T04:31:51.762Z,29.27
2023-05-25T04:34:39.317Z,30.87
2023-05-25T04:37:21.833Z,30.67
2023-05-25T04:39:51.704Z,30.37
2023-05-25T04:42:24.284Z,31.13
2023-05-25T04:44:57.040Z,29.83
2023-05-25T04:47:26.452Z,29.90
2023-05-25T04:49:56.823Z,30.13
2023-05-25T04:52:26.061Z,29.23
2023-05-25T04:54:56.517Z,27.97
2023-05-25T04:57:28.366Z,27.33
2023-05-25T04:59:59.390Z,28.00
2023-05-25T05:02:28.685Z,29.17
2023-05-25T05:04:58.051Z,27.80
2023-05-25T05:07:27.258Z,28.73
2023-05-25T05:09:56.730Z,30.53
2023-05-25T05:12:27.469Z,30.73
2023-05-25T05:14:59.190Z,27.43
2023-05-25T05:17:31.077Z,29.93
2023-05-25T05:20:01.093Z,28.57
2023-05-25T05:22:30.515Z,28.87
2023-05-25T05:24:59.849Z,28.47
2023-05-25T05:27:30.553Z,38.40
2023-05-25T05:30:05.305Z,31.73
2023-05-25T05:32:35.170Z,26.37
2023-05-25T05:35:05.780Z,29.27
2023-05-25T05:37:44.695Z,29.93
2023-05-25T05:40:14.339Z,27.43
2023-05-25T05:42:46.361Z,31.23
2023-05-25T05:45:15.627Z,34.90
2023-05-25T05:47:45.336Z,32.27
2023-05-25T05:50:14.780Z,30.40
2023-05-25T05:52:44.286Z,30.97
2023-05-25T05:55:14.168Z,29.37
2023-05-25T05:57:45.977Z,30.33
2023-05-25T06:00:17.383Z,34.23
2023-05-25T06:02:47.995Z,27.87
2023-05-25T06:05:22.420Z,29.10
2023-05-25T06:07:54.367Z,28.07
2023-05-25T06:10:24.596Z,29.00
2023-05-25T06:12:56.001Z,28.33
2023-05-25T06:15:25.779Z,30.17
2023-05-25T06:17:58.677Z,26.70
2023-05-25T06:20:28.063Z,25.60
2023-05-25T06:22:57.451Z,26.10
2023-05-25T06:25:26.809Z,26.53
2023-05-25T06:27:59.188Z,26.40
2023-05-25T06:30:28.933Z,35.23
2023-05-25T06:32:59.001Z,27.67
2023-05-25T06:35:30.371Z,25.60
2023-05-25T06:38:00.056Z,24.37
2023-05-25T06:40:30.223Z,25.20
2023-05-25T06:43:00.945Z,23.20
2023-05-25T06:45:44.323Z,23.53
2023-05-25T06:48:14.071Z,23.10
2023-05-25T06:50:44.299Z,23.50
2023-05-25T06:53:14.008Z,24.23
2023-05-25T06:55:43.864Z,24.67
2023-05-25T06:58:15.156Z,26.23
2023-05-25T07:00:47.485Z,24.10
2023-05-25T07:03:37.085Z,23.60
2023-05-25T07:06:16.088Z,24.63
2023-05-25T07:08:48.647Z,23.00
2023-05-25T07:11:22.314Z,25.40
2023-05-25T07:13:53.573Z,28.27
2023-05-25T07:16:24.001Z,24.33
2023-05-25T07:18:56.469Z,22.77
2023-05-25T07:21:27.373Z,24.87
2023-05-25T07:23:56.882Z,24.60
2023-05-25T07:26:28.487Z,26.27
2023-05-25T07:29:00.063Z,24.07
2023-05-25T07:31:29.546Z,24.43
2023-05-25T07:33:58.868Z,23.83
2023-05-25T07:36:28.285Z,24.13
2023-05-25T07:38:57.621Z,22.90
2023-05-25T07:41:27.208Z,24.87
2023-05-25T07:43:56.596Z,25.33
2023-05-25T07:46:28.079Z,24.67
2023-05-25T07:48:58.916Z,23.07
2023-05-25T07:51:31.558Z,26.10
2023-05-25T07:54:01.056Z,22.43
2023-05-25T07:56:30.366Z,22.48
2023-05-25T07:59:00.385Z,21.77
2023-05-25T08:01:31.121Z,23.05
2023-05-25T08:04:00.742Z,20.80
2023-05-25T08:06:30.295Z,22.27
2023-05-25T08:08:59.638Z,22.23
2023-05-25T08:11:29.278Z,22.35
2023-05-25T08:14:00.581Z,22.30
2023-05-25T08:16:31.659Z,26.23
2023-05-25T08:19:01.947Z,21.15
2023-05-25T08:21:35.243Z,21.20
2023-05-25T08:24:05.611Z,22.65
2023-05-25T08:26:53.039Z,20.40
2023-05-25T08:29:23.970Z,21.92
2023-05-25T08:31:57.128Z,20.52
2023-05-25T08:34:27.169Z,21.92
2023-05-25T08:36:56.990Z,22.95
2023-05-25T08:39:27.228Z,21.33
2023-05-25T08:41:56.572Z,21.67
2023-05-25T08:44:26.044Z,21.40
2023-05-25T08:46:58.840Z,21.08
2023-05-25T08:49:29.997Z,20.95
2023-05-25T08:51:59.440Z,19.05
2023-05-25T08:54:33.180Z,21.45
2023-05-25T08:57:07.648Z,19.63
2023-05-25T08:59:44.564Z,20.50
2023-05-25T09:02:24.125Z,20.92
2023-05-25T09:04:53.867Z,18.90
2023-05-25T09:07:23.553Z,19.50
2023-05-25T09:09:53.756Z,20.02
2023-05-25T09:12:24.519Z,19.65
2023-05-25T09:14:55.914Z,19.45
2023-05-25T09:17:27.090Z,19.38
2023-05-25T09:19:56.889Z,19.38
2023-05-25T09:22:26.537Z,19.05
2023-05-25T09:24:56.106Z,17.90
2023-05-25T09:27:25.764Z,17.70
2023-05-25T09:30:00.239Z,19.38
2023-05-25T09:32:31.996Z,19.77
2023-05-25T09:35:09.575Z,19.65
2023-05-25T09:37:39.575Z,24.60
2023-05-25T09:40:11.187Z,20.63
2023-05-25T09:42:40.684Z,19.58
2023-05-25T09:45:10.664Z,18.92
2023-05-25T09:47:42.653Z,18.95
2023-05-25T09:50:13.443Z,18.63
2023-05-25T09:52:43.813Z,20.00
2023-05-25T09:55:13.799Z,19.00
2023-05-25T09:57:44.689Z,20.27
2023-05-25T10:00:15.369Z,18.88
2023-05-25T10:02:46.177Z,19.40
2023-05-25T10:05:15.589Z,19.30
2023-05-25T10:07:46.600Z,19.02
2023-05-25T10:10:17.052Z,17.35
2023-05-25T10:12:47.252Z,17.77
2023-05-25T10:15:18.037Z,19.48
2023-05-25T10:17:56.197Z,18.33
2023-05-25T10:20:56.524Z,19.15
2023-05-25T10:23:18.598Z,19.67
2023-05-25T10:25:51.137Z,19.77
2023-05-25T10:28:28.461Z,23.40
2023-05-25T10:30:59.377Z,19.50
2023-05-25T10:36:10.777Z,18.20
2023-05-25T10:38:44.986Z,19.42
2023-05-25T10:41:16.270Z,19.88
2023-05-25T10:43:46.102Z,17.45
2023-05-25T10:46:15.613Z,20.08
2023-05-25T10:48:50.432Z,19.50
2023-05-25T10:51:21.434Z,16.67
2023-05-25T10:54:02.376Z,17.58
2023-05-25T10:56:31.880Z,17.75
2023-05-25T10:59:02.387Z,16.77
2023-05-25T11:01:34.949Z,15.63
2023-05-25T11:04:18.696Z,16.80
2023-05-25T11:07:08.741Z,15.30
2023-05-25T11:09:43.868Z,15.57
2023-05-25T11:12:23.243Z,16.45
2023-05-25T11:15:15.679Z,14.77
2023-05-25T11:18:03.581Z,16.13
2023-05-25T11:20:34.577Z,15.60
2023-05-25T11:23:24.463Z,16.83
2023-05-25T11:25:53.899Z,16.15
2023-05-25T11:28:24.754Z,15.93
2023-05-25T11:30:54.361Z,18.63
2023-05-25T11:33:24.143Z,15.07
2023-05-25T11:35:57.838Z,19.38
2023-05-25T11:38:27.723Z,16.33
2023-05-25T11:41:07.681Z,16.98
2023-05-25T11:43:41.512Z,17.02
2023-05-25T11:46:12.001Z,15.60
2023-05-25T11:48:45.840Z,19.30
2023-05-25T11:51:16.756Z,18.00
2023-05-25T11:53:47.557Z,16.20
2023-05-25T11:56:33.671Z,14.73
2023-05-25T11:59:09.158Z,16.15
2023-05-25T12:01:38.933Z,15.55
2023-05-25T12:04:11.287Z,15.75
2023-05-25T12:06:42.223Z,14.77
2023-05-25T12:09:14.280Z,15.60
2023-05-25T12:11:45.990Z,14.50
2023-05-25T12:14:15.969Z,12.45
2023-05-25T12:16:46.489Z,13.60
2023-05-25T12:19:16.531Z,13.90
2023-05-25T12:21:48.217Z,14.55
2023-05-25T12:24:17.964Z,15.02
2023-05-25T12:26:51.138Z,12.32
2023-05-25T12:29:20.641Z,13.63
2023-05-25T12:31:50.032Z,21.20
2023-05-25T12:34:21.058Z,16.92
2023-05-25T12:36:53.153Z,15.57
2023-05-25T12:39:39.271Z,17.42
2023-05-25T12:42:15.696Z,13.75
2023-05-25T12:44:46.881Z,13.07
2023-05-25T12:47:20.250Z,13.15
2023-05-25T12:49:52.380Z,12.85
2023-05-25T12:52:37.299Z,13.55
2023-05-25T12:55:29.557Z,12.48
2023-05-25T12:58:00.485Z,12.98
2023-05-25T13:00:33.120Z,13.98
2023-05-25T13:03:02.633Z,14.50
2023-05-25T13:05:34.285Z,14.52
2023-05-25T13:08:06.428Z,13.32
2023-05-25T13:10:38.519Z,13.13
2023-05-25T13:13:08.201Z,13.98
2023-05-25T13:15:37.478Z,11.57
2023-05-25T13:18:07.167Z,14.75
2023-05-25T13:20:37.133Z,10.88
2023-05-25T13:23:07.878Z,11.52
2023-05-25T13:25:37.555Z,12.13
2023-05-25T13:28:07.320Z,10.07
2023-05-25T13:30:36.760Z,11.82
2023-05-25T13:33:06.333Z,10.75
2023-05-25T13:35:42.369Z,11.00
2023-05-25T13:38:15.739Z,14.82
2023-05-25T13:40:47.182Z,10.38
2023-05-25T13:43:16.936Z,11.52
2023-05-25T13:45:46.717Z,9.35
2023-05-25T13:48:16.424Z,10.52
2023-05-25T13:50:46.130Z,8.77
2023-05-25T13:53:17.101Z,9.68
2023-05-25T13:55:46.949Z,9.55
2023-05-25T13:58:16.359Z,9.68
2023-05-25T14:00:45.761Z,8.75
2023-05-25T14:03:15.445Z,9.15
2023-05-25T14:05:45.382Z,8.35
2023-05-25T14:08:16.432Z,8.65
2023-05-25T14:10:45.988Z,8.80
2023-05-25T14:13:15.560Z,7.85
2023-05-25T14:15:46.311Z,9.43
2023-05-25T14:18:16.174Z,9.52
2023-05-25T14:20:45.823Z,8.55
2023-05-25T14:23:19.530Z,9.07
2023-05-25T14:25:50.227Z,11.48
2023-05-25T14:28:19.525Z,9.30
2023-05-25T14:30:49.054Z,9.38
2023-05-25T14:33:18.420Z,8.90
2023-05-25T14:35:47.903Z,8.18
2023-05-25T14:38:19.174Z,9.10
2023-05-25T14:40:48.620Z,11.57
2023-05-25T14:43:18.115Z,10.30
2023-05-25T14:45:47.835Z,9.05
2023-05-25T14:48:19.168Z,9.32
2023-05-25T14:50:48.714Z,9.73
2023-05-25T14:53:19.956Z,9.73
2023-05-25T14:55:49.422Z,12.07
2023-05-25T14:58:18.782Z,9.68
2023-05-25T15:00:48.262Z,10.43
2023-05-25T15:03:18.178Z,10.40
2023-05-25T15:05:47.732Z,9.93
2023-05-25T15:08:18.802Z,16.05
2023-05-25T15:10:48.699Z,9.50
2023-05-25T15:13:19.026Z,9.18
2023-05-25T15:15:48.524Z,9.10
2023-05-25T15:18:18.070Z,8.35
2023-05-25T15:20:47.510Z,8.82
2023-05-25T15:23:16.919Z,8.82
2023-05-25T15:25:47.887Z,10.05
2023-05-25T15:28:17.317Z,8.45
2023-05-25T15:30:47.034Z,17.15
2023-05-25T15:33:16.365Z,10.55
2023-05-25T15:35:45.975Z,16.40
2023-05-25T15:38:15.638Z,8.82
2023-05-25T15:40:46.756Z,8.32
2023-05-25T15:43:16.209Z,8.45
2023-05-25T15:45:45.718Z,10.13
2023-05-25T15:48:17.519Z,8.65
2023-05-25T15:50:47.248Z,8.90
2023-05-25T15:53:16.726Z,8.93
2023-05-25T15:55:47.595Z,8.77
2023-05-25T15:58:18.057Z,8.50
2023-05-25T16:00:47.638Z,10.15
2023-05-25T16:03:16.992Z,9.77
2023-05-25T16:05:46.813Z,9.82
2023-05-25T16:08:16.340Z,8.18
2023-05-25T16:10:47.485Z,9.13
2023-05-25T16:13:16.969Z,11.75
2023-05-25T16:15:46.796Z,8.80
2023-05-25T16:18:17.047Z,9.02
2023-05-25T16:20:46.572Z,9.27
2023-05-25T16:23:16.636Z,8.90
2023-05-25T16:25:47.855Z,9.32
2023-05-25T16:28:17.385Z,8.82
2023-05-25T16:30:47.128Z,9.05
2023-05-25T16:33:16.552Z,9.10
2023-05-25T16:35:46.528Z,9.10
2023-05-25T16:38:16.520Z,8.07
2023-05-25T16:40:47.296Z,9.00
2023-05-25T16:43:16.723Z,8.82
2023-05-25T16:45:46.249Z,9.18
2023-05-25T16:48:16.435Z,8.15
2023-05-25T16:50:46.223Z,8.38
2023-05-25T16:53:15.727Z,9.93
2023-05-25T16:55:46.868Z,9.38
2023-05-25T16:58:16.680Z,9.90
2023-05-25T17:00:46.170Z,9.05
2023-05-25T17:03:15.814Z,9.90
2023-05-25T17:05:45.520Z,8.82
2023-05-25T17:08:15.293Z,8.48
2023-05-25T17:10:50.195Z,9.65
2023-05-25T17:13:19.663Z,11.43
2023-05-25T17:15:49.731Z,8.77
2023-05-25T17:18:19.191Z,9.93
2023-05-25T17:20:48.764Z,11.18
2023-05-25T17:23:19.582Z,8.57
2023-05-25T17:25:50.604Z,9.68
2023-05-25T17:28:20.002Z,9.55
2023-05-25T17:30:49.363Z,9.35
2023-05-25T17:33:19.119Z,8.98
2023-05-25T17:35:48.509Z,9.27
2023-05-25T17:38:18.167Z,10.43
2023-05-25T17:40:48.158Z,10.07
2023-05-25T17:43:19.586Z,10.40
2023-05-25T17:45:49.249Z,8.82
2023-05-25T17:48:18.886Z,9.32
2023-05-25T17:50:48.496Z,8.60
2023-05-25T17:53:18.263Z,8.90
2023-05-25T17:55:48.066Z,12.57
2023-05-25T17:58:19.120Z,9.90
2023-05-25T18:00:49.337Z,9.30
2023-05-25T18:03:19.134Z,9.27
2023-05-25T18:05:49.484Z,9.82
2023-05-25T18:08:19.198Z,9.30
2023-05-25T18:10:50.577Z,9.40
2023-05-25T18:13:22.325Z,10.18
2023-05-25T18:15:52.415Z,11.45
2023-05-25T18:18:25.233Z,8.55
2023-05-25T18:20:55.190Z,9.90
2023-05-25T18:23:25.246Z,9.27
2023-05-25T18:25:55.182Z,9.63
2023-05-25T18:28:28.636Z,8.57
2023-05-25T18:30:59.435Z,10.43
2023-05-25T18:33:28.871Z,9.02
2023-05-25T18:35:58.368Z,10.27
2023-05-25T18:38:27.826Z,8.75
2023-05-25T18:40:57.261Z,9.82
2023-05-25T18:43:28.238Z,10.48
2023-05-25T18:45:57.886Z,10.32
2023-05-25T18:48:27.356Z,8.38
2023-05-25T18:50:56.900Z,12.43
2023-05-25T18:53:26.281Z,9.52
2023-05-25T18:55:55.591Z,8.52
2023-05-25T18:58:25.088Z,9.30
2023-05-25T19:00:56.020Z,10.80
2023-05-25T19:03:25.687Z,11.35
2023-05-25T19:05:55.189Z,10.02
2023-05-25T19:08:24.479Z,9.07
2023-05-25T19:10:54.100Z,9.32
2023-05-25T19:13:23.801Z,8.80
2023-05-25T19:15:54.637Z,8.73
2023-05-25T19:18:24.157Z,10.00
2023-05-25T19:20:53.697Z,12.00
2023-05-25T19:23:23.426Z,8.80
2023-05-25T19:25:52.871Z,9.98
2023-05-25T19:28:22.441Z,11.18
2023-05-25T19:30:51.906Z,9.02
2023-05-25T19:33:22.841Z,8.98
2023-05-25T19:35:52.296Z,11.27
2023-05-25T19:38:22.144Z,10.95
2023-05-25T19:40:52.774Z,8.68
2023-05-25T19:43:22.174Z,10.40
2023-05-25T19:45:52.223Z,9.52
2023-05-25T19:48:27.207Z,9.38
2023-05-25T19:50:57.080Z,9.38
2023-05-25T19:53:26.601Z,10.60
2023-05-25T19:55:56.326Z,9.93
2023-05-25T19:58:25.848Z,9.50
2023-05-25T20:00:55.749Z,10.52
2023-05-25T20:03:27.015Z,10.95
2023-05-25T20:05:56.736Z,9.50
2023-05-25T20:08:27.571Z,10.75
2023-05-25T20:10:57.025Z,11.38
2023-05-25T20:13:26.521Z,10.68
2023-05-25T20:15:56.277Z,11.20
2023-05-25T20:18:27.300Z,12.57
2023-05-25T20:20:56.668Z,10.98
2023-05-25T20:23:26.293Z,10.68
2023-05-25T20:25:55.867Z,10.57
2023-05-25T20:28:25.381Z,11.63
2023-05-25T20:30:55.281Z,9.70
2023-05-25T20:33:24.936Z,11.07
2023-05-25T20:35:55.823Z,12.18
2023-05-25T20:38:26.498Z,11.80
2023-05-25T20:40:56.461Z,11.70
2023-05-25T20:43:26.036Z,14.80
2023-05-25T20:45:55.520Z,11.85
2023-05-25T20:48:25.486Z,11.23
2023-05-25T20:50:57.720Z,13.57
2023-05-25T20:53:28.777Z,11.48
2023-05-25T20:55:59.337Z,12.65
2023-05-25T20:58:29.142Z,10.32
2023-05-25T21:00:58.776Z,12.43
2023-05-25T21:03:28.268Z,16.75
2023-05-25T21:05:59.367Z,14.13
2023-05-25T21:08:28.638Z,12.48
2023-05-25T21:10:58.402Z,11.32
2023-05-25T21:13:27.959Z,13.50
2023-05-25T21:15:57.569Z,11.98
2023-05-25T21:18:27.026Z,12.25
2023-05-25T21:20:56.960Z,12.95
2023-05-25T21:23:29.044Z,12.63
2023-05-25T21:25:58.618Z,12.30
2023-05-25T21:28:27.991Z,13.55
2023-05-25T21:30:57.573Z,12.07
2023-05-25T21:33:35.949Z,12.63
2023-05-25T21:36:05.664Z,12.43
2023-05-25T21:38:36.599Z,13.45
2023-05-25T21:41:06.323Z,12.10
2023-05-25T21:43:35.464Z,11.57
2023-05-25T21:46:04.787Z,11.07
2023-05-25T21:48:34.189Z,11.45
2023-05-25T21:51:03.694Z,10.98
2023-05-25T21:53:32.960Z,10.20
2023-05-25T21:56:03.845Z,10.70
2023-05-25T21:58:33.038Z,15.52
2023-05-25T22:01:02.366Z,12.23
2023-05-25T22:03:33.675Z,12.60
2023-05-25T22:06:03.043Z,10.90
2023-05-25T22:08:32.308Z,11.23
2023-05-25T22:11:02.778Z,10.10
2023-05-25T22:13:32.159Z,10.98
2023-05-25T22:16:01.259Z,10.30
2023-05-25T22:18:30.399Z,9.20
2023-05-25T22:20:59.529Z,9.48
2023-05-25T22:23:28.821Z,9.30
2023-05-25T22:25:58.177Z,9.80
2023-05-25T22:28:28.889Z,8.73
2023-05-25T22:30:58.076Z,9.75
2023-05-25T22:33:27.538Z,9.27
2023-05-25T22:35:59.656Z,9.25
2023-05-25T22:38:31.743Z,9.23
2023-05-25T22:41:00.715Z,10.17
2023-05-25T22:43:31.256Z,10.17
2023-05-25T22:46:00.365Z,9.63
2023-05-25T22:48:29.473Z,8.87
2023-05-25T22:50:58.932Z,8.83
2023-05-25T22:53:27.822Z,9.40
2023-05-25T22:55:56.790Z,9.03
2023-05-25T22:58:25.975Z,9.60
2023-05-25T23:00:57.584Z,9.53
2023-05-25T23:03:26.818Z,9.10
2023-05-25T23:05:56.058Z,9.50
2023-05-25T23:08:25.023Z,10.13
2023-05-25T23:10:54.176Z,8.93
2023-05-25T23:13:24.378Z,10.30
2023-05-25T23:15:55.474Z,9.03
2023-05-25T23:18:26.125Z,11.07
2023-05-25T23:20:55.084Z,9.97
2023-05-25T23:23:24.132Z,11.20
2023-05-25T23:25:54.049Z,9.93
2023-05-25T23:28:23.279Z,9.50
2023-05-25T23:30:52.593Z,8.43
2023-05-25T23:33:22.307Z,8.50
2023-05-25T23:35:52.723Z,10.70
2023-05-25T23:38:21.866Z,7.80
2023-05-25T23:40:50.861Z,6.60
2023-05-25T23:43:20.066Z,7.13
2023-05-25T23:45:49.257Z,8.37
2023-05-25T23:48:18.482Z,7.30
2023-05-25T23:50:47.572Z,8.40
2023-05-25T23:53:18.150Z,6.80
2023-05-25T23:55:47.371Z,7.07
2023-05-25T23:58:16.377Z,7.73
